Time;durP1;ratioP1;P1;durP2;ratioP2;P2;SDS_P1;SDS_P2;PMS_P1;PMS_P2;Temp;Humidity;BMP_temperature;BMP_pressure;BME280_temperature;BME280_humidity;BME280_pressure;Samples;Min_cycle;Max_cycle;Signal;HPM_P1;HPM_P2
2023/09/11 00:00:41;;;;;;;27.02;22.95;;;20.20;99.90;;;;;;4999340;28;89548;-34
2023/09/11 00:03:07;;;;;;;23.90;21.48;;;20.20;99.90;;;;;;4999099;28;90060;-36
2023/09/11 00:05:32;;;;;;;27.33;20.45;;;20.20;99.90;;;;;;4982491;28;87816;-35
2023/09/11 00:07:58;;;;;;;24.90;21.95;;;20.20;99.90;;;;;;4998549;28;91375;-37
2023/09/11 00:10:24;;;;;;;24.95;21.08;;;20.20;99.90;;;;;;4999720;28;91380;-34
2023/09/11 00:12:50;;;;;;;25.20;21.90;;;20.10;99.90;;;;;;4999815;28;90137;-33
2023/09/11 00:15:15;;;;;;;26.95;22.15;;;20.20;99.90;;;;;;4998685;28;89165;-34
2023/09/11 00:17:41;;;;;;;28.77;23.98;;;20.10;99.90;;;;;;4999665;28;90178;-33
2023/09/11 00:20:10;;;;;;;27.90;22.88;;;20.20;99.90;;;;;;4999129;28;89816;-35
2023/09/11 00:22:38;;;;;;;26.80;21.75;;;20.10;99.90;;;;;;4986104;28;89631;-37
2023/09/11 00:25:04;;;;;;;29.55;22.45;;;20.10;99.90;;;;;;4998999;28;88636;-38
2023/09/11 00:27:29;;;;;;;30.10;22.80;;;20.10;99.90;;;;;;4999828;28;90476;-39
2023/09/11 00:29:57;;;;;;;28.70;23.05;;;20.10;99.90;;;;;;4997866;28;90037;-37
2023/09/11 00:32:23;;;;;;;25.67;21.70;;;20.10;99.90;;;;;;4999284;28;90071;-39
2023/09/11 00:34:49;;;;;;;27.15;22.23;;;20.10;99.90;;;;;;4999608;28;89937;-33
2023/09/11 00:37:14;;;;;;;26.60;22.73;;;20.10;99.90;;;;;;4998597;28;88716;-35
2023/09/11 00:39:40;;;;;;;25.67;22.95;;;20.10;99.90;;;;;;4995642;28;89633;-37
2023/09/11 00:42:05;;;;;;;25.52;22.92;;;20.00;99.90;;;;;;4996864;28;90698;-34
2023/09/11 00:44:31;;;;;;;27.17;22.30;;;20.00;99.90;;;;;;4999030;28;89188;-36
2023/09/11 00:46:58;;;;;;;31.65;22.60;;;20.00;99.90;;;;;;4998568;28;90622;-34
2023/09/11 00:49:24;;;;;;;26.00;23.27;;;20.00;99.90;;;;;;4999064;28;90540;-31
2023/09/11 00:51:50;;;;;;;27.85;22.40;;;20.00;99.90;;;;;;4999108;28;89503;-36
2023/09/11 00:54:21;;;;;;;26.13;22.42;;;20.00;99.90;;;;;;4999297;28;89125;-36
2023/09/11 00:56:47;;;;;;;24.98;21.10;;;19.90;99.90;;;;;;4999015;28;90238;-34
2023/09/11 00:59:14;;;;;;;27.67;23.13;;;19.90;99.90;;;;;;4998033;28;89762;-34
2023/09/11 01:01:44;;;;;;;27.15;21.92;;;20.00;99.90;;;;;;4998822;28;89737;-36
2023/09/11 01:04:10;;;;;;;27.45;22.15;;;19.90;99.90;;;;;;4980315;28;89565;-36
2023/09/11 01:06:36;;;;;;;25.63;22.13;;;19.90;99.90;;;;;;4999182;28;90698;-37
2023/09/11 01:09:03;;;;;;;29.52;23.15;;;19.90;99.90;;;;;;4997585;28;89769;-37
2023/09/11 01:11:29;;;;;;;30.05;23.42;;;19.90;99.90;;;;;;4998912;28;89751;-38
2023/09/11 01:13:55;;;;;;;33.03;23.45;;;19.90;99.90;;;;;;4998594;28;89164;-36
2023/09/11 01:17:19;;;;;;;35.17;25.52;;;19.90;99.90;;;;;;4980758;28;90248;-35
2023/09/11 01:20:09;;;;;;;28.08;22.48;;;19.90;99.90;;;;;;4950203;28;90504;-34
2023/09/11 01:22:58;;;;;;;27.90;22.25;;;19.80;99.90;;;;;;4985798;28;89173;-34
2023/09/11 01:25:26;;;;;;;25.55;22.80;;;19.70;99.90;;;;;;4997852;28;89101;-34
2023/09/11 01:28:09;;;;;;;32.70;22.63;;;19.70;99.90;;;;;;4997190;28;89545;-35
2023/09/11 01:30:36;;;;;;;32.13;24.08;;;19.70;99.90;;;;;;4997437;28;90916;-35
2023/09/11 01:33:02;;;;;;;32.45;25.98;;;19.60;99.90;;;;;;4998468;28;90395;-34
2023/09/11 01:35:28;;;;;;;30.90;25.40;;;19.60;99.90;;;;;;4998358;28;88678;-34
2023/09/11 01:37:55;;;;;;;28.63;23.17;;;19.60;99.90;;;;;;4987715;28;91183;-36
2023/09/11 01:40:24;;;;;;;30.65;27.08;;;19.60;99.90;;;;;;4994905;28;89843;-33
2023/09/11 01:42:54;;;;;;;27.30;24.60;;;19.60;99.90;;;;;;4997862;28;89227;-36
2023/09/11 01:45:21;;;;;;;33.35;24.50;;;19.60;99.90;;;;;;4979797;28;88442;-35
2023/09/11 01:47:50;;;;;;;36.60;25.17;;;19.60;99.90;;;;;;4998626;28;89864;-37
2023/09/11 01:50:18;;;;;;;31.33;24.55;;;19.60;99.90;;;;;;4997446;28;89643;-33
2023/09/11 01:52:45;;;;;;;33.28;23.48;;;19.60;99.90;;;;;;4998433;28;89588;-33
2023/09/11 01:55:11;;;;;;;25.48;22.83;;;19.60;99.90;;;;;;4975745;28;89549;-37
2023/09/11 01:57:36;;;;;;;24.90;22.20;;;19.50;99.90;;;;;;4991357;28;90563;-34
2023/09/11 02:00:04;;;;;;;29.20;22.60;;;19.50;99.90;;;;;;4997256;28;89837;-35
2023/09/11 02:02:29;;;;;;;28.23;24.43;;;19.50;99.90;;;;;;4996797;28;89356;-37
2023/09/11 02:04:55;;;;;;;33.97;24.42;;;19.50;99.90;;;;;;4998307;28;88447;-36
2023/09/11 02:07:21;;;;;;;26.92;22.17;;;19.50;99.90;;;;;;4998047;28;90409;-33
2023/09/11 02:09:47;;;;;;;28.00;22.13;;;19.50;99.90;;;;;;4997543;28;89366;-38
2023/09/11 02:12:12;;;;;;;27.88;24.00;;;19.50;99.90;;;;;;4997842;28;89920;-34
2023/09/11 02:14:38;;;;;;;28.38;23.00;;;19.50;99.90;;;;;;4979888;28;88970;-34
2023/09/11 02:17:04;;;;;;;31.30;24.30;;;19.40;99.90;;;;;;4997368;28;90263;-34
2023/09/11 02:19:30;;;;;;;36.15;24.30;;;19.40;99.90;;;;;;4997294;28;91273;-36
2023/09/11 02:21:56;;;;;;;25.50;22.55;;;19.40;99.90;;;;;;4997125;28;89261;-38
2023/09/11 02:24:22;;;;;;;29.42;24.77;;;19.40;99.90;;;;;;4998289;28;88559;-34
2023/09/11 02:26:48;;;;;;;23.48;21.10;;;19.40;99.90;;;;;;4997407;28;90304;-32
2023/09/11 02:29:13;;;;;;;31.83;23.02;;;19.40;99.90;;;;;;4997934;28;89419;-35
2023/09/11 02:31:39;;;;;;;29.70;23.65;;;19.40;99.90;;;;;;4979787;28;89791;-37
2023/09/11 02:34:04;;;;;;;25.45;22.75;;;19.40;99.90;;;;;;5001483;28;89873;-38
2023/09/11 02:36:30;;;;;;;26.70;23.88;;;19.40;99.90;;;;;;4998021;28;89858;-33
2023/09/11 02:38:56;;;;;;;32.35;22.98;;;19.40;99.90;;;;;;4999327;28;88308;-36
2023/09/11 02:41:21;;;;;;;28.45;24.65;;;19.30;99.90;;;;;;5001675;28;89763;-33
2023/09/11 02:43:47;;;;;;;29.98;22.55;;;19.30;99.90;;;;;;5000221;28;88993;-35
2023/09/11 02:46:12;;;;;;;23.00;20.70;;;19.30;99.90;;;;;;5000673;28;90704;-36
2023/09/11 02:48:46;;;;;;;24.70;22.02;;;19.20;99.90;;;;;;5000408;28;90384;-35
2023/09/11 02:51:12;;;;;;;26.00;20.17;;;19.20;99.90;;;;;;5000281;28;89318;-35
2023/09/11 02:53:38;;;;;;;27.98;22.42;;;19.20;99.90;;;;;;5000609;28;88427;-35
2023/09/11 02:56:04;;;;;;;22.80;20.25;;;19.20;99.90;;;;;;4982665;28;90315;-33
2023/09/11 02:58:30;;;;;;;23.35;20.83;;;19.20;99.90;;;;;;5000212;28;92006;-34
2023/09/11 03:01:01;;;;;;;24.67;22.10;;;19.10;99.90;;;;;;4999961;28;90076;-32
2023/09/11 03:03:27;;;;;;;26.63;19.92;;;19.10;99.90;;;;;;5000851;28;88129;-35
2023/09/11 03:05:57;;;;;;;26.10;22.63;;;19.10;99.90;;;;;;5000284;28;89944;-34
2023/09/11 03:08:23;;;;;;;26.27;19.67;;;19.10;99.90;;;;;;5000003;28;91073;-36
2023/09/11 03:10:49;;;;;;;22.83;18.30;;;19.10;99.90;;;;;;4999926;28;90602;-35
2023/09/11 03:13:15;;;;;;;26.05;22.27;;;19.10;99.90;;;;;;4999768;28;87679;-35
2023/09/11 03:15:42;;;;;;;31.02;24.63;;;19.10;99.90;;;;;;5001028;28;89572;-34
2023/09/11 03:18:08;;;;;;;27.67;21.45;;;19.00;99.90;;;;;;5001340;28;90622;-32
2023/09/11 03:20:34;;;;;;;23.45;21.02;;;19.00;99.90;;;;;;5000148;28;90288;-37
2023/09/11 03:23:00;;;;;;;28.75;22.13;;;19.00;99.90;;;;;;5000751;28;88285;-33
2023/09/11 03:25:26;;;;;;;27.95;21.63;;;19.00;99.90;;;;;;4999660;28;91880;-32
2023/09/11 03:27:52;;;;;;;22.95;20.45;;;18.90;99.90;;;;;;4999785;28;89699;-37
2023/09/11 03:30:18;;;;;;;21.73;18.20;;;18.90;99.90;;;;;;5000702;28;89938;-35
2023/09/11 03:32:43;;;;;;;23.08;19.00;;;18.90;99.90;;;;;;4999734;28;88125;-34
2023/09/11 03:35:09;;;;;;;27.13;18.80;;;18.90;99.90;;;;;;4999691;28;90344;-36
2023/09/11 03:37:35;;;;;;;27.60;22.08;;;18.90;99.90;;;;;;4999413;28;89883;-34
2023/09/11 03:40:06;;;;;;;41.75;21.08;;;18.90;99.90;;;;;;4998990;28;89629;-34
2023/09/11 03:42:33;;;;;;;20.23;17.65;;;18.90;99.90;;;;;;4992325;28;89429;-34
2023/09/11 03:45:00;;;;;;;21.88;19.65;;;18.80;99.90;;;;;;4994728;28;90033;-37
2023/09/11 03:47:25;;;;;;;23.17;20.77;;;18.80;99.90;;;;;;5000811;28;89647;-34
2023/09/11 03:49:51;;;;;;;24.02;21.27;;;18.80;99.90;;;;;;4999300;28;90434;-33
2023/09/11 03:52:17;;;;;;;21.90;18.42;;;18.80;99.90;;;;;;5000194;28;87683;-35
2023/09/11 03:54:42;;;;;;;22.73;20.10;;;18.80;99.90;;;;;;4999707;28;90881;-36
2023/09/11 03:57:08;;;;;;;26.70;21.48;;;18.80;99.90;;;;;;4999263;28;90374;-37
2023/09/11 03:59:34;;;;;;;29.80;21.95;;;18.80;99.90;;;;;;4998792;28;90410;-33
2023/09/11 04:01:59;;;;;;;26.15;20.25;;;18.70;99.90;;;;;;4998945;28;89353;-38
2023/09/11 04:04:25;;;;;;;25.63;21.67;;;18.80;99.90;;;;;;4999735;28;89887;-34
2023/09/11 04:06:50;;;;;;;26.88;24.10;;;18.70;99.90;;;;;;4999929;28;89733;-38
2023/09/11 04:09:16;;;;;;;32.72;23.48;;;18.70;99.90;;;;;;4981666;28;90228;-32
2023/09/11 04:11:42;;;;;;;28.42;22.85;;;18.60;99.90;;;;;;4998936;28;88817;-32
2023/09/11 04:14:07;;;;;;;31.42;24.23;;;18.60;99.90;;;;;;4980918;28;90159;-37
2023/09/11 04:16:33;;;;;;;27.98;24.15;;;18.60;99.90;;;;;;4999640;28;90406;-37
2023/09/11 04:18:58;;;;;;;25.42;20.80;;;18.50;99.90;;;;;;4999167;28;89642;-37
2023/09/11 04:21:24;;;;;;;27.98;22.85;;;18.50;99.90;;;;;;4999531;28;89372;-33
2023/09/11 04:23:50;;;;;;;25.02;21.85;;;18.50;99.90;;;;;;4998328;28;89909;-35
2023/09/11 04:26:16;;;;;;;25.75;23.05;;;18.50;99.90;;;;;;4999383;28;88388;-33
2023/09/11 04:28:42;;;;;;;26.48;22.05;;;18.50;99.90;;;;;;4998433;28;89639;-35
2023/09/11 04:31:08;;;;;;;23.63;21.30;;;18.50;99.90;;;;;;4999439;28;89611;-39
2023/09/11 04:33:34;;;;;;;32.13;23.08;;;18.50;99.90;;;;;;4999228;28;89879;-33
2023/09/11 04:36:00;;;;;;;29.20;23.30;;;18.40;99.90;;;;;;4998298;28;89444;-34
2023/09/11 04:38:25;;;;;;;25.88;23.20;;;18.40;99.90;;;;;;4980612;28;88724;-37
2023/09/11 04:40:56;;;;;;;26.92;23.75;;;18.50;99.90;;;;;;4999661;28;90010;-34
2023/09/11 04:43:23;;;;;;;24.60;20.30;;;18.40;99.90;;;;;;4999256;28;90188;-32
2023/09/11 04:45:49;;;;;;;28.25;23.05;;;18.30;99.90;;;;;;4998443;28;90524;-36
2023/09/11 04:48:14;;;;;;;26.70;23.85;;;18.30;99.90;;;;;;4998945;28;89515;-35
2023/09/11 04:50:40;;;;;;;32.58;26.17;;;18.30;99.90;;;;;;4998961;28;88028;-34
2023/09/11 04:53:05;;;;;;;30.02;26.15;;;18.30;99.90;;;;;;4998326;28;90262;-33
2023/09/11 04:55:31;;;;;;;31.15;25.77;;;18.30;99.90;;;;;;4998356;28;90947;-34
2023/09/11 04:57:57;;;;;;;34.42;25.52;;;18.30;99.90;;;;;;4998479;28;89254;-33
2023/09/11 05:00:22;;;;;;;40.35;27.77;;;18.30;99.90;;;;;;4998809;28;87662;-35
2023/09/11 05:02:50;;;;;;;30.05;26.88;;;18.30;99.90;;;;;;4998760;28;90951;-34
2023/09/11 05:05:16;;;;;;;28.73;25.50;;;18.30;99.90;;;;;;4998131;28;89725;-38
2023/09/11 05:07:41;;;;;;;39.92;27.45;;;18.30;99.90;;;;;;4999035;28;89586;-32
2023/09/11 05:10:08;;;;;;;38.15;27.58;;;18.30;99.90;;;;;;4997681;28;89284;-34
2023/09/11 05:12:34;;;;;;;33.03;25.67;;;18.30;99.90;;;;;;4998022;28;90492;-37
2023/09/11 05:14:59;;;;;;;31.38;28.20;;;18.30;99.90;;;;;;4998496;28;90154;-34
2023/09/11 05:17:26;;;;;;;35.25;28.23;;;18.30;99.90;;;;;;4997881;28;89887;-36
2023/09/11 05:19:51;;;;;;;41.70;28.42;;;18.20;99.90;;;;;;4999288;28;90699;-36
2023/09/11 05:22:18;;;;;;;34.65;27.50;;;18.30;99.90;;;;;;4998118;28;90388;-34
2023/09/11 05:24:44;;;;;;;35.58;28.27;;;18.30;99.90;;;;;;4998733;28;89613;-34
2023/09/11 05:27:09;;;;;;;29.23;25.60;;;18.30;99.90;;;;;;4997937;28;89940;-34
2023/09/11 05:29:35;;;;;;;41.42;29.55;;;18.30;99.90;;;;;;5049371;22;87890;-33
2023/09/11 05:32:00;;;;;;;30.48;27.17;;;18.30;99.90;;;;;;4998196;28;90593;-34
2023/09/11 05:34:26;;;;;;;31.75;27.65;;;18.30;99.90;;;;;;4997598;28;90746;-34
2023/09/11 05:36:52;;;;;;;35.38;28.10;;;18.30;99.90;;;;;;4998003;28;90879;-38
2023/09/11 05:39:17;;;;;;;36.40;26.58;;;18.30;99.90;;;;;;4998193;28;88333;-34
2023/09/11 05:41:43;;;;;;;33.97;28.52;;;18.30;99.90;;;;;;4997394;28;90365;-33
2023/09/11 05:44:08;;;;;;;33.95;27.55;;;18.30;99.90;;;;;;4999032;28;89847;-36
2023/09/11 05:46:34;;;;;;;40.80;29.92;;;18.30;99.90;;;;;;4984387;28;89544;-33
2023/09/11 05:49:00;;;;;;;35.60;27.48;;;18.40;99.90;;;;;;4992603;28;87861;-35
2023/09/11 05:51:25;;;;;;;34.75;28.33;;;18.40;99.90;;;;;;4990202;28;91122;-35
2023/09/11 05:53:51;;;;;;;39.22;27.73;;;18.50;99.90;;;;;;4969594;28;89740;-33
2023/09/11 05:56:17;;;;;;;41.28;28.83;;;18.50;99.90;;;;;;4990237;28;89877;-36
2023/09/11 05:58:43;;;;;;;32.38;26.88;;;18.50;99.90;;;;;;4995091;28;89967;-36
2023/09/11 06:01:09;;;;;;;32.17;28.83;;;18.50;99.90;;;;;;4994782;28;90816;-34
2023/09/11 06:03:34;;;;;;;38.50;27.85;;;18.50;99.90;;;;;;4976453;28;90785;-37
2023/09/11 06:06:00;;;;;;;31.45;26.08;;;18.50;99.90;;;;;;4995188;28;89600;-35
2023/09/11 06:08:26;;;;;;;31.95;28.13;;;18.60;99.90;;;;;;4995154;28;89329;-34
2023/09/11 06:10:52;;;;;;;34.97;26.77;;;18.60;99.90;;;;;;4995005;28;89907;-38
2023/09/11 06:13:18;;;;;;;32.15;25.08;;;18.60;99.90;;;;;;4994416;28;89734;-33
2023/09/11 06:15:43;;;;;;;32.72;28.20;;;18.70;99.90;;;;;;4994920;28;89197;-33
2023/09/11 06:18:09;;;;;;;37.78;27.13;;;18.70;99.90;;;;;;4995813;28;89409;-37
2023/09/11 06:20:35;;;;;;;34.35;27.52;;;18.70;99.90;;;;;;4994728;28;90783;-37
2023/09/11 06:23:01;;;;;;;38.45;28.98;;;18.80;99.90;;;;;;4994753;28;90529;-34
2023/09/11 06:25:27;;;;;;;37.60;27.27;;;18.80;99.90;;;;;;4994987;28;91285;-35
2023/09/11 06:27:53;;;;;;;30.15;26.23;;;18.90;99.90;;;;;;4993991;28;89326;-34
2023/09/11 06:30:18;;;;;;;33.15;29.45;;;18.90;99.90;;;;;;4994279;28;89337;-36
2023/09/11 06:32:44;;;;;;;33.60;27.65;;;19.00;99.90;;;;;;4995313;28;90682;-35
2023/09/11 06:35:10;;;;;;;29.88;25.95;;;19.00;99.90;;;;;;4994257;28;90104;-36
2023/09/11 06:37:37;;;;;;;35.65;26.77;;;19.10;99.90;;;;;;4977233;28;88406;-33
2023/09/11 06:40:07;;;;;;;32.45;26.00;;;19.10;99.90;;;;;;4994603;28;90375;-35
2023/09/11 06:42:34;;;;;;;31.55;27.05;;;19.20;99.90;;;;;;4994835;28;90148;-34
2023/09/11 06:44:59;;;;;;;42.63;26.65;;;19.30;99.90;;;;;;4995365;28;89758;-34
2023/09/11 06:47:25;;;;;;;35.70;26.55;;;19.40;99.90;;;;;;4994991;28;89186;-33
2023/09/11 06:49:50;;;;;;;32.88;27.25;;;19.50;99.90;;;;;;4993056;28;90306;-36
2023/09/11 06:52:17;;;;;;;35.58;27.17;;;19.50;99.90;;;;;;4977628;28;89669;-35
2023/09/11 06:54:42;;;;;;;28.45;22.55;;;19.60;99.90;;;;;;4994814;28;89089;-38
2023/09/11 06:57:08;;;;;;;28.10;23.73;;;19.80;99.90;;;;;;4985853;28;89298;-39
2023/09/11 06:59:34;;;;;;;33.45;27.10;;;19.90;99.90;;;;;;4992672;28;91980;-34
2023/09/11 07:02:00;;;;;;;29.02;23.70;;;20.10;99.90;;;;;;4984124;28;89728;-33
2023/09/11 07:04:25;;;;;;;38.08;25.05;;;20.30;99.90;;;;;;4976233;28;89797;-35
2023/09/11 07:06:51;;;;;;;27.17;24.17;;;20.40;99.90;;;;;;4994631;28;88445;-37
2023/09/11 07:09:17;;;;;;;28.67;23.90;;;20.60;99.90;;;;;;4993768;28;91199;-34
2023/09/11 07:11:43;;;;;;;25.98;23.27;;;20.70;99.90;;;;;;4993656;28;90353;-35
2023/09/11 07:14:12;;;;;;;27.05;21.38;;;20.90;99.90;;;;;;4975830;28;89971;-37
2023/09/11 07:16:38;;;;;;;29.02;21.23;;;21.10;99.90;;;;;;4994470;28;90276;-39
2023/09/11 07:19:04;;;;;;;24.42;19.60;;;21.40;99.90;;;;;;4996732;28;90598;-36
2023/09/11 07:21:30;;;;;;;32.67;21.10;;;21.60;99.90;;;;;;4998228;28;90070;-36
2023/09/11 07:23:56;;;;;;;32.70;19.63;;;21.80;99.90;;;;;;4997548;28;89552;-35
2023/09/11 07:26:22;;;;;;;28.85;19.85;;;22.00;99.90;;;;;;4997475;28;88758;-35
2023/09/11 07:29:02;;;;;;;31.75;20.83;;;22.20;99.90;;;;;;4996638;28;90251;-36
2023/09/11 07:31:29;;;;;;;25.52;20.50;;;22.40;99.90;;;;;;4997300;28;89883;-35
2023/09/11 07:33:55;;;;;;;28.08;20.73;;;22.60;99.90;;;;;;4996243;28;89206;-36
2023/09/11 07:36:21;;;;;;;26.80;18.83;;;22.70;99.90;;;;;;4997829;28;90373;-34
2023/09/11 07:38:47;;;;;;;22.17;19.88;;;22.90;99.90;;;;;;4994692;28;90700;-33
2023/09/11 07:41:17;;;;;;;29.48;19.85;;;23.10;99.90;;;;;;4975271;28;89209;-34
2023/09/11 07:43:48;;;;;;;23.75;18.30;;;23.20;99.90;;;;;;4995727;28;89431;-36
2023/09/11 07:46:14;;;;;;;23.92;18.30;;;23.40;99.90;;;;;;4997822;28;88657;-35
2023/09/11 07:48:39;;;;;;;23.17;18.40;;;23.60;99.90;;;;;;4996748;28;90408;-34
2023/09/11 07:51:05;;;;;;;21.88;17.75;;;23.70;99.90;;;;;;4996749;28;89034;-35
2023/09/11 07:53:31;;;;;;;23.23;18.70;;;23.80;99.90;;;;;;4997928;28;89472;-36
2023/09/11 07:55:57;;;;;;;19.63;17.05;;;24.00;99.90;;;;;;4996802;28;89117;-34
2023/09/11 07:58:24;;;;;;;19.63;17.25;;;24.00;99.90;;;;;;4997226;28;89137;-39
2023/09/11 08:00:49;;;;;;;20.90;16.30;;;24.20;99.90;;;;;;4997174;28;91080;-38
2023/09/11 08:03:15;;;;;;;27.33;15.43;;;24.30;99.90;;;;;;4995106;28;90977;-33
2023/09/11 08:05:40;;;;;;;20.08;14.77;;;24.50;99.90;;;;;;4997733;28;89247;-34
2023/09/11 08:08:06;;;;;;;16.55;14.88;;;24.60;99.90;;;;;;4997255;28;89038;-36
2023/09/11 08:10:32;;;;;;;23.92;16.13;;;24.80;99.90;;;;;;4997027;28;88512;-38
2023/09/11 08:12:57;;;;;;;20.63;14.35;;;25.00;99.90;;;;;;4997359;28;89994;-36
2023/09/11 08:15:24;;;;;;;25.92;15.98;;;25.20;99.90;;;;;;4995998;28;90260;-38
2023/09/11 08:17:49;;;;;;;24.48;14.57;;;25.30;99.90;;;;;;4997051;28;91181;-35
2023/09/11 08:20:15;;;;;;;19.08;13.60;;;25.40;99.90;;;;;;4996656;28;90173;-36
2023/09/11 08:22:41;;;;;;;18.45;13.00;;;25.50;99.90;;;;;;4997611;28;89475;-37
2023/09/11 08:25:09;;;;;;;22.65;13.88;;;25.70;99.90;;;;;;4995168;28;90246;-38
2023/09/11 08:27:34;;;;;;;16.83;13.23;;;25.90;99.90;;;;;;4996671;28;90023;-38
2023/09/11 08:30:00;;;;;;;16.10;12.40;;;26.00;99.90;;;;;;4995775;28;89567;-34
2023/09/11 08:32:26;;;;;;;25.58;14.50;;;26.10;99.90;;;;;;4996467;28;89954;-33
2023/09/11 08:34:51;;;;;;;15.10;12.98;;;26.10;99.90;;;;;;4996881;28;89121;-33
2023/09/11 08:37:17;;;;;;;19.63;13.48;;;26.30;99.90;;;;;;4996548;28;89887;-34
2023/09/11 08:39:43;;;;;;;13.43;11.65;;;26.40;99.90;;;;;;4995569;28;90039;-35
2023/09/11 08:42:09;;;;;;;19.25;12.38;;;26.60;99.90;;;;;;4997406;28;89477;-33
2023/09/11 08:44:35;;;;;;;16.63;13.13;;;26.70;99.90;;;;;;4997334;28;88813;-35
2023/09/11 08:47:05;;;;;;;16.98;13.00;;;26.70;99.90;;;;;;4977450;28;90315;-35
2023/09/11 08:49:39;;;;;;;17.70;12.23;;;26.70;99.90;;;;;;4995645;28;90604;-36
2023/09/11 08:52:07;;;;;;;16.73;11.18;;;26.80;99.90;;;;;;4984592;28;90620;-33
2023/09/11 08:54:40;;;;;;;14.32;11.55;;;26.90;99.90;;;;;;4995556;28;89645;-34
2023/09/11 08:57:06;;;;;;;24.13;11.93;;;27.10;99.90;;;;;;4996872;28;90395;-34
2023/09/11 08:59:36;;;;;;;16.20;12.25;;;27.10;99.90;;;;;;4995625;28;89127;-36
2023/09/11 09:02:03;;;;;;;15.60;11.27;;;27.30;99.90;;;;;;4995306;28;90345;-33
2023/09/11 09:04:30;;;;;;;13.57;10.43;;;27.40;99.90;;;;;;4996740;28;88761;-37
2023/09/11 09:06:56;;;;;;;14.52;11.43;;;27.40;99.90;;;;;;4996877;28;90902;-33
2023/09/11 09:09:22;;;;;;;19.80;11.27;;;27.40;99.90;;;;;;4982274;28;91041;-34
2023/09/11 09:11:48;;;;;;;19.08;10.43;;;27.50;99.90;;;;;;4996431;28;87869;-33
2023/09/11 09:14:18;;;;;;;14.80;10.75;;;27.50;99.90;;;;;;4996473;28;88885;-37
2023/09/11 09:16:45;;;;;;;11.82;10.60;;;27.60;99.90;;;;;;4995911;28;90399;-35
2023/09/11 09:19:11;;;;;;;13.68;12.13;;;27.60;99.90;;;;;;4995659;28;90254;-36
2023/09/11 09:21:56;;;;;;;13.88;11.18;;;27.70;99.90;;;;;;4996724;28;89674;-35
2023/09/11 09:24:23;;;;;;;18.30;10.93;;;27.70;99.90;;;;;;4984309;28;89377;-35
2023/09/11 09:26:57;;;;;;;17.98;12.15;;;27.70;99.90;;;;;;4995304;28;91040;-36
2023/09/11 09:29:23;;;;;;;15.75;12.18;;;27.80;99.90;;;;;;4968213;28;89557;-34
2023/09/11 09:31:48;;;;;;;15.32;12.57;;;27.90;99.90;;;;;;4991875;28;89396;-33
2023/09/11 09:34:14;;;;;;;13.60;11.10;;;27.90;99.90;;;;;;4996037;28;89638;-34
2023/09/11 09:36:50;;;;;;;12.13;10.60;;;28.00;99.90;;;;;;4996047;28;90127;-34
2023/09/11 09:39:16;;;;;;;19.42;11.93;;;28.00;99.90;;;;;;4994051;28;90289;-36
2023/09/11 09:42:01;;;;;;;24.15;12.57;;;28.00;99.90;;;;;;4995531;28;90524;-34
2023/09/11 09:44:37;;;;;;;22.08;12.52;;;28.10;99.90;;;;;;4996801;28;89567;-34
2023/09/11 09:47:15;;;;;;;27.92;11.98;;;28.10;99.90;;;;;;4993457;28;90523;-36
2023/09/11 09:49:49;;;;;;;17.40;10.95;;;28.10;99.90;;;;;;4995295;28;89283;-35
2023/09/11 09:52:15;;;;;;;17.83;10.90;;;28.10;99.90;;;;;;4995553;28;90936;-36
2023/09/11 09:54:50;;;;;;;14.95;11.35;;;28.20;99.90;;;;;;4995085;28;90312;-33
2023/09/11 09:57:17;;;;;;;17.55;10.90;;;28.30;99.90;;;;;;4996026;28;90338;-36
2023/09/11 09:59:48;;;;;;;18.17;11.48;;;28.40;99.90;;;;;;4995817;28;89655;-36
2023/09/11 10:02:14;;;;;;;14.15;11.18;;;28.60;99.90;;;;;;4994767;28;90899;-33
2023/09/11 10:04:40;;;;;;;13.07;10.52;;;28.50;99.90;;;;;;4995173;28;90090;-33
2023/09/11 10:07:06;;;;;;;14.30;10.60;;;28.50;99.90;;;;;;4977271;28;90061;-34
2023/09/11 10:09:33;;;;;;;14.90;10.23;;;28.30;99.90;;;;;;4994542;28;89603;-35
2023/09/11 10:12:09;;;;;;;28.77;11.02;;;28.10;99.90;;;;;;4994888;28;90411;-35
2023/09/11 10:14:35;;;;;;;12.70;9.40;;;28.20;99.90;;;;;;4982721;28;89328;-38
2023/09/11 10:17:03;;;;;;;13.68;10.93;;;28.40;99.90;;;;;;4994928;28;90104;-37
2023/09/11 10:19:30;;;;;;;19.92;10.63;;;28.30;99.90;;;;;;4994106;28;89121;-36
2023/09/11 10:21:55;;;;;;;17.73;10.48;;;28.40;99.90;;;;;;4970486;28;89101;-36
2023/09/11 10:24:21;;;;;;;12.73;9.88;;;28.50;99.90;;;;;;4995251;28;89672;-34
2023/09/11 10:26:59;;;;;;;16.25;10.38;;;28.50;99.40;;;;;;4995905;28;90579;-36
2023/09/11 10:29:31;;;;;;;13.77;11.13;;;28.70;99.90;;;;;;4994221;28;90604;-37
2023/09/11 10:32:04;;;;;;;13.27;11.65;;;28.70;99.80;;;;;;4993938;28;89845;-35
2023/09/11 10:34:31;;;;;;;16.90;12.57;;;28.60;99.90;;;;;;4995221;28;89508;-35
2023/09/11 10:36:58;;;;;;;16.70;12.27;;;28.70;99.90;;;;;;4994422;28;91187;-35
2023/09/11 10:39:25;;;;;;;16.63;12.32;;;28.70;99.90;;;;;;4994206;28;89128;-35
2023/09/11 10:41:51;;;;;;;15.48;12.95;;;28.70;99.90;;;;;;4995109;28;88661;-36
2023/09/11 10:44:17;;;;;;;18.20;12.10;;;28.40;99.90;;;;;;4995074;28;90257;-33
2023/09/11 10:46:51;;;;;;;14.88;11.70;;;28.60;99.90;;;;;;4975360;28;91677;-36
2023/09/11 10:49:21;;;;;;;17.30;12.55;;;28.80;99.90;;;;;;4994772;28;89542;-35
2023/09/11 10:51:48;;;;;;;18.50;13.00;;;28.70;99.90;;;;;;4995278;28;89783;-38
2023/09/11 10:54:21;;;;;;;17.20;12.60;;;28.70;99.90;;;;;;4997048;28;89637;-35
2023/09/11 10:56:49;;;;;;;13.38;12.00;;;28.70;99.90;;;;;;4998005;28;91516;-34
2023/09/11 10:59:16;;;;;;;19.48;12.10;;;28.80;99.90;;;;;;4997843;28;89647;-36
2023/09/11 11:01:46;;;;;;;16.95;11.00;;;28.80;99.90;;;;;;4997123;28;89677;-35
2023/09/11 11:04:14;;;;;;;18.27;11.60;;;28.60;99.90;;;;;;4998055;28;89389;-36
2023/09/11 11:06:46;;;;;;;12.48;11.25;;;28.60;99.90;;;;;;4997179;28;90481;-34
2023/09/11 11:09:32;;;;;;;11.77;10.15;;;28.70;99.90;;;;;;4996205;28;91452;-35
2023/09/11 11:12:06;;;;;;;11.10;9.98;;;28.70;99.90;;;;;;4971847;28;89596;-34
2023/09/11 11:14:31;;;;;;;15.40;11.70;;;28.80;99.90;;;;;;4998155;28;88196;-35
2023/09/11 11:17:00;;;;;;;13.80;9.88;;;28.70;97.50;;;;;;4997686;28;89285;-34
2023/09/11 11:19:31;;;;;;;11.25;9.98;;;28.70;98.30;;;;;;4998350;28;89777;-34
2023/09/11 11:21:57;;;;;;;12.30;9.88;;;28.80;99.80;;;;;;4996169;28;90523;-32
2023/09/11 11:24:26;;;;;;;15.10;10.98;;;28.70;98.60;;;;;;4998775;28;87785;-35
2023/09/11 11:26:56;;;;;;;12.48;11.23;;;28.80;98.60;;;;;;4997885;28;90804;-38
2023/09/11 11:29:23;;;;;;;12.30;10.43;;;28.90;98.00;;;;;;4992390;28;89714;-35
2023/09/11 11:31:53;;;;;;;11.47;10.33;;;29.00;99.80;;;;;;4997185;28;90174;-34
2023/09/11 11:34:22;;;;;;;16.20;11.65;;;29.10;99.00;;;;;;4979880;28;88926;-35
2023/09/11 11:36:50;;;;;;;11.95;10.77;;;28.90;97.40;;;;;;4996388;28;90250;-35
2023/09/11 11:39:16;;;;;;;14.57;12.68;;;28.90;99.10;;;;;;4988447;28;89545;-36
2023/09/11 11:41:43;;;;;;;19.83;11.77;;;28.90;98.60;;;;;;4991206;28;89952;-36
2023/09/11 11:44:08;;;;;;;20.60;11.48;;;28.90;99.30;;;;;;4995953;28;89571;-38
2023/09/11 11:46:35;;;;;;;20.23;11.65;;;28.90;98.60;;;;;;4996697;28;90890;-34
2023/09/11 11:49:00;;;;;;;12.13;10.93;;;28.90;98.60;;;;;;4997168;28;89983;-34
2023/09/11 11:51:28;;;;;;;16.33;11.80;;;28.80;98.00;;;;;;4995543;28;90063;-34
2023/09/11 11:53:54;;;;;;;13.70;11.65;;;28.90;98.00;;;;;;4996758;28;89019;-34
2023/09/11 11:56:20;;;;;;;13.13;11.85;;;28.90;98.90;;;;;;4997219;28;90726;-36
2023/09/11 11:58:45;;;;;;;14.70;12.30;;;29.00;99.60;;;;;;4995740;28;90667;-36
2023/09/11 12:01:11;;;;;;;12.48;11.25;;;29.00;98.60;;;;;;4995953;28;89745;-39
2023/09/11 12:03:54;;;;;;;20.38;12.45;;;28.90;99.70;;;;;;4987261;28;88753;-36
2023/09/11 12:06:20;;;;;;;15.15;10.68;;;29.00;99.90;;;;;;4996129;28;90634;-38
2023/09/11 12:08:47;;;;;;;16.80;12.60;;;29.10;99.90;;;;;;4986516;28;91004;-34
2023/09/11 12:11:13;;;;;;;18.45;11.73;;;29.10;99.90;;;;;;4994949;28;90466;-37
2023/09/11 12:13:39;;;;;;;14.20;11.35;;;29.10;99.90;;;;;;4996602;28;88763;-36
2023/09/11 12:16:05;;;;;;;13.20;10.43;;;29.20;99.90;;;;;;4993502;28;90713;-35
2023/09/11 12:18:35;;;;;;;16.52;12.23;;;29.20;99.90;;;;;;4996851;28;89251;-37
2023/09/11 12:21:03;;;;;;;16.85;12.55;;;29.20;99.90;;;;;;4995103;28;89407;-38
2023/09/11 12:23:29;;;;;;;15.68;13.75;;;29.20;99.90;;;;;;4995847;28;89071;-39
2023/09/11 12:25:55;;;;;;;24.40;12.27;;;29.20;99.10;;;;;;4997469;28;90785;-37
2023/09/11 12:28:23;;;;;;;19.15;13.00;;;29.10;99.90;;;;;;4994178;28;89461;-38